Nearby METAR Reports

 

KMGE - Dobbins Afb/Mari, Georgia, USA
Distance from station: SSW 6mi, 9km
Updated: Fri, 16-Nov-2018 1:56am EST
Overcast
Overcast
 Wind from W
Wind: W 13 mph , 20 km/h
Temperature: 32°F , 0°C
Wind Chill: 22°F , -6°C
Dew Point: 27°F , -3°C
Humidity: 80%
Barometer: 30.12 inHg , 1020 hPa
Clouds: Overcast
Visibility: 10 miles , 16 km
Cloud details: Overcast 1500 ft
2018/11/16 06:56 KMGE 160656Z AUTO 28011KT 10SM OVC015 00/M03 A3012 RMK AO2 SLP208 T00041030 $
KRYY - Marietta Mccolum, Georgia, USA
Distance from station: WNW 6mi, 10km
Updated: Fri, 16-Nov-2018 1:48am EST
Overcast
Overcast
 Wind from NW
Wind: NW 8 mph , 13 km/h
Temperature: 32°F , 0°C
Wind Chill: 25°F , -4°C
Dew Point: 27°F , -3°C
Humidity: 80%
Barometer: 30.14 inHg , 1020.7 hPa
Clouds: Overcast
Visibility: 10 miles , 16 km
Cloud details: Overcast 1500 ft
2018/11/16 06:48 KRYY 160648Z AUTO 31007KT 270V350 10SM OVC015 00/M03 A3014 RMK AO2 SLP928 T00001028 FZRANO
 
KPDK - Peachtree/Dekalb, Georgia, USA
Distance from station: SE 13mi, 22km
Updated: Fri, 16-Nov-2018 1:53am EST
Overcast
Overcast
 Wind from NW
Wind: NW 12 mph , 19 km/h
Temperature: 34°F , 1°C
Wind Chill: 25°F , -4°C
Dew Point: 27°F , -3°C
Humidity: 75%
Barometer: 30.12 inHg , 1020 hPa
Clouds: Overcast
Visibility: 10 miles , 16 km
Cloud details: Overcast 1600 ft
2018/11/16 06:53 KPDK 160653Z AUTO 31010KT 10SM OVC016 01/M03 A3012 RMK AO2 SLP212 T00061028
KFTY - Atlanta/Fulton, Georgia, USA
Distance from station: S 15mi, 24km
Updated: Fri, 16-Nov-2018 1:53am EST
Overcast
Overcast
 Wind from WNW
Wind: WNW 10 mph , 17 km/h
Temperature: 34°F , 1°C
Wind Chill: 26°F , -3°C
Dew Point: 28°F , -2°C
Humidity: 81%
Barometer: 30.14 inHg , 1020.7 hPa
Clouds: Overcast
Visibility: 10 miles , 16 km
Cloud details: Overcast 1500 ft
2018/11/16 06:53 KFTY 160653Z 30009KT 10SM OVC015 01/M02 A3014 RMK AO2 SLP209 T00111017
 
KCNI - Canton/Cherokee, Georgia, USA
Distance from station: N 23mi, 36km
Updated: Fri, 16-Nov-2018 2:15am EST
Overcast
Overcast
 Wind from WNW
Wind: WNW 7 mph , 11 km/h, Gust: 18 mph , 30 km/h
Temperature: 32°F , 0°C
Wind Chill: 25°F , -4°C
Dew Point: 27°F , -3°C
Humidity: 80%
Barometer: 30.12 inHg , 1020 hPa
Clouds: Overcast
Visibility: 10 miles , 16 km
Cloud details: Overcast 1400 ft
2018/11/16 07:15 KCNI 160715Z AUTO 30006G16KT 10SM OVC014 00/M03 A3012 RMK AO2
KVPC - Cartersville, Georgia, USA
Distance from station: WNW 23mi, 36km
Updated: Fri, 16-Nov-2018 1:53am EST
Overcast
Overcast
 Wind from varies
Wind: varies 3 mph , 6 km/h
Temperature: 34°F , 1°C
Dew Point: 27°F , -3°C
Humidity: 75%
Barometer: 30.16 inHg , 1021.3 hPa
Clouds: Overcast
Visibility: 10 miles , 16 km
Cloud details: Overcast 1800 ft
2018/11/16 06:53 KVPC 160653Z AUTO VRB03KT 10SM OVC018 01/M03 A3016 RMK AO2 SLP215 T00061028
 
KATL - Atlanta, Georgia, USA
Distance from station: S 25mi, 40km
Updated: Fri, 16-Nov-2018 1:52am EST
Overcast
Overcast
 Wind from NW
Wind: NW 15 mph , 24 km/h
Temperature: 34°F , 1°C
Wind Chill: 24°F , -4°C
Dew Point: 27°F , -3°C
Humidity: 75%
Barometer: 30.12 inHg , 1020 hPa
Clouds: Overcast
Visibility: 10 miles , 16 km
Cloud details: Overcast 1500 ft
2018/11/16 06:52 KATL 160652Z 31013KT 10SM OVC015 01/M03 A3012 RMK AO2 SLP206 T00111028
KPUJ - Atlanta/Paulding, Georgia, USA
Distance from station: WSW 26mi, 42km
Updated: Fri, 16-Nov-2018 2:15am EST
Overcast
Overcast
 Wind from NW
Wind: NW 10 mph , 17 km/h
Temperature: 32°F , 0°C
Wind Chill: 24°F , -4°C
Dew Point: 30°F , -1°C
Humidity: 93%
Barometer: 30.13 inHg , 1020.3 hPa
Clouds: Overcast
Visibility: 10 miles , 16 km
Cloud details: Overcast 1300 ft
2018/11/16 07:15 KPUJ 160715Z AUTO 32009KT 10SM OVC013 00/M01 A3013 RMK AO2
 
KLZU - Lawrenceville, Georgia, USA
Distance from station: E 30mi, 48km
Updated: Fri, 16-Nov-2018 1:56am EST
Overcast
Overcast
 Wind from WNW
Wind: WNW 10 mph , 17 km/h
Temperature: 32°F , 0°C
Wind Chill: 24°F , -4°C
Dew Point: 27°F , -3°C
Humidity: 80%
Barometer: 30.10 inHg , 1019.3 hPa
Clouds: Overcast
Visibility: 10 miles , 16 km
Cloud details: Overcast 1600 ft
2018/11/16 06:56 KLZU 160656Z AUTO 29009KT 10SM OVC016 00/M03 A3010 RMK AO2 SLP208 T00001028 FZRANO
KJZP - Jasper, Georgia, USA
Distance from station: N 32mi, 51km
Updated: Fri, 16-Nov-2018 1:55am EST
Overcast
Overcast
 Wind from N
Wind: N 10 mph , 17 km/h, Gust: 16 mph , 26 km/h
Temperature: 30°F , -1°C
Wind Chill: 21°F , -6°C
Dew Point: 27°F , -3°C
Humidity: 86%
Barometer: 30.12 inHg , 1020 hPa
Clouds: Overcast
Visibility: 10 miles , 16 km
Cloud details: Overcast 900 ft
2018/11/16 06:55 KJZP 160655Z AUTO 36009G14KT 10SM OVC009 M01/M03 A3012 RMK AO2 T10131030 PNO
 
KCZL - Calhoun, Georgia, USA
Distance from station: NW 40mi, 65km
Updated: Fri, 16-Nov-2018 2:15am EST
Overcast
Overcast
 Wind from NNW
Wind: NNW 9 mph , 15 km/h
Temperature: 34°F , 1°C
Wind Chill: 27°F , -3°C
Dew Point: 28°F , -2°C
Humidity: 81%
Barometer: 30.19 inHg , 1022.4 hPa
Clouds: Overcast
Visibility: 10 miles , 16 km
Cloud details: Overcast 1900 ft
2018/11/16 07:15 KCZL 160715Z AUTO 34008KT 10SM OVC019 01/M02 A3019 RMK AO2
KGVL - Gainesville, Georgia, USA
Distance from station: ENE 42mi, 68km
Updated: Fri, 16-Nov-2018 1:53am EST
Few Clouds
Few Clouds
 Wind from W
Wind: W 13 mph , 20 km/h
Temperature: 30°F , -1°C
Wind Chill: 20°F , -7°C
Dew Point: 28°F , -2°C
Humidity: 93%
Barometer: 30.07 inHg , 1018.3 hPa
Clouds: Few Clouds
Visibility: 10 miles , 16 km
Cloud details: Few Clouds 1600 ft
2018/11/16 06:53 KGVL 160653Z AUTO 28011KT 10SM FEW016 M01/M02 A3007 RMK AO2 SLP185 T10061022
 
KHMP - Hampton, Georgia, USA
Distance from station: SSE 43mi, 70km
Updated: Fri, 16-Nov-2018 2:15am EST
Overcast
Overcast
 Wind from NW
Wind: NW 3 mph , 6 km/h
Temperature: 34°F , 1°C
Dew Point: 28°F , -2°C
Humidity: 81%
Barometer: 30.14 inHg , 1020.7 hPa
Clouds: Overcast
Visibility: 10 miles , 16 km
Cloud details: Overcast 1700 ft
2018/11/16 07:15 KHMP 160715Z AUTO 32003KT 10SM OVC017 01/M02 A3014 RMK AO2 T00101022
KCVC - Covington, Georgia, USA
Distance from station: ESE 45mi, 72km
Updated: Fri, 16-Nov-2018 1:55am EST
Overcast
Overcast
 Wind from WNW
Wind: WNW 7 mph , 11 km/h
Temperature: 36°F , 2°C
Wind Chill: 30°F , -1°C
Dew Point: 32°F , 0°C
Humidity: 87%
Barometer: 30.11 inHg , 1019.6 hPa
Clouds: Overcast
Visibility: 10 miles , 16 km
Cloud details: Overcast 2000 ft
2018/11/16 06:55 KCVC 160655Z AUTO 30006KT 10SM OVC020 02/00 A3011 RMK AO2 PNO
 
KFFC - Peachtree City, Georgia, USA
Distance from station: S 45mi, 72km
Updated: Fri, 16-Nov-2018 1:53am EST
Overcast
Overcast
 Wind from NW
Wind: NW 10 mph , 17 km/h
Temperature: 36°F , 2°C
Wind Chill: 29°F , -2°C
Dew Point: 28°F , -2°C
Humidity: 75%
Barometer: 30.15 inHg , 1021 hPa
Clouds: Overcast
Visibility: 10 miles , 16 km
Cloud details: Overcast 1800 ft
2018/11/16 06:53 KFFC 160653Z AUTO 32009KT 10SM OVC018 02/M02 A3015 RMK AO2 SLP214 T00221017
KCTJ - Carrollton/Gray, Georgia, USA
Distance from station: SW 45mi, 73km
Updated: Fri, 16-Nov-2018 2:15am EST
Partly cloudy
Partly cloudy
 Wind from NNW
Wind: NNW 7 mph , 11 km/h
Temperature: 30°F , -1°C
Wind Chill: 23°F , -5°C
Dew Point: 27°F , -3°C
Humidity: 86%
Barometer: 30.18 inHg , 1022 hPa
Clouds: Partly cloudy
Visibility: 10 miles , 16 km
Cloud details: Partly cloudy 1400 ft
2018/11/16 07:15 KCTJ 160715Z AUTO 33006KT 10SM SCT014 M01/M03 A3018 RMK AO2 T10101030
 
KRMG - Rome, Georgia, USA
Distance from station: WNW 46mi, 74km
Updated: Fri, 16-Nov-2018 1:53am EST
Overcast
Overcast
 Wind from NW
Wind: NW 6 mph , 9 km/h
Temperature: 34°F , 1°C
Wind Chill: 29°F , -2°C
Dew Point: 27°F , -3°C
Humidity: 75%
Barometer: 30.17 inHg , 1021.7 hPa
Clouds: Overcast
Visibility: 10 miles , 16 km
Cloud details: Overcast 2300 ft
2018/11/16 06:53 KRMG 160653Z AUTO 31005KT 10SM OVC023 01/M03 A3017 RMK AO2 SLP216 T00111028
KWDR - Winder/Barrow, Georgia, USA
Distance from station: E 47mi, 76km
Updated: Thu, 15-Nov-2018 9:57pm EST
NOT Current
Overcast
Overcast
 Wind from WNW
Wind: WNW 12 mph , 19 km/h, Gust: 17 mph , 28 km/h
Temperature: 36°F , 2°C
Wind Chill: 28°F , -2°C
Dew Point: 30°F , -1°C
Humidity: 81%
Barometer: 30.10 inHg , 1019.3 hPa
Clouds: Overcast
Visibility: 10 miles , 16 km
Cloud details: Overcast 1600 ft
2018/11/16 02:57 KWDR 160257Z AUTO 29010G15KT 10SM OVC016 02/M01 A3010 RMK AO1
 
KCCO - Newnan, Georgia, USA
Distance from station: SSW 49mi, 80km
Updated: Fri, 16-Nov-2018 1:55am EST
Mostly cloudy
Mostly cloudy
 Wind from NW
Wind: NW 8 mph , 13 km/h
Temperature: 34°F , 1°C
Wind Chill: 27°F , -3°C
Dew Point: 28°F , -2°C
Humidity: 81%
Barometer: 30.14 inHg , 1020.7 hPa
Clouds: Mostly cloudy
Visibility: 10 miles , 16 km
Cloud details: Mostly cloudy 1800 ft
2018/11/16 06:55 KCCO 160655Z AUTO 32007KT 10SM BKN018 01/M02 A3014 RMK AO2 T00101025